createdAt,value
2023-02-22T00:00:18.193Z,1012.5
2023-02-22T00:03:17.660Z,1012.5
2023-02-22T00:06:18.121Z,1012.5
2023-02-22T00:09:18.680Z,1012.5
2023-02-22T00:12:18.573Z,1012.5
2023-02-22T00:15:17.779Z,1012.5
2023-02-22T00:18:30.291Z,1012.5
2023-02-22T00:21:17.965Z,1012.5
2023-02-22T00:24:18.605Z,1012.4
2023-02-22T00:27:17.852Z,1012.4
2023-02-22T00:30:18.184Z,1012.3
2023-02-22T00:33:18.745Z,1012.3
2023-02-22T00:36:18.251Z,1012.2
2023-02-22T00:39:18.526Z,1012.2
2023-02-22T00:42:17.692Z,1012.2
2023-02-22T00:45:18.286Z,1012.2
2023-02-22T00:48:18.760Z,1012.2
2023-02-22T00:51:18.610Z,1012.3
2023-02-22T00:54:18.173Z,1012.3
2023-02-22T00:57:18.571Z,1012.4
2023-02-22T01:00:17.830Z,1012.4
2023-02-22T01:03:18.164Z,1012.4
2023-02-22T01:06:18.715Z,1012.4
2023-02-22T01:09:18.068Z,1012.4
2023-02-22T01:12:18.193Z,1012.4
2023-02-22T01:15:18.526Z,1012.4
2023-02-22T01:18:17.888Z,1012.4
2023-02-22T01:21:18.488Z,1012.4
2023-02-22T01:24:17.888Z,1012.3
2023-02-22T01:27:18.429Z,1012.3
2023-02-22T01:30:18.579Z,1012.3
2023-02-22T01:33:18.821Z,1012.3
2023-02-22T01:36:18.181Z,1012.3
2023-02-22T01:39:18.488Z,1012.3
2023-02-22T01:42:18.657Z,1012.2
2023-02-22T01:45:18.267Z,1012.2
2023-02-22T01:48:18.706Z,1012.2
2023-02-22T01:51:18.315Z,1012.2
2023-02-22T01:54:17.850Z,1012.2
2023-02-22T01:57:18.715Z,1012.2
2023-02-22T02:00:18.476Z,1012.2
2023-02-22T02:03:18.955Z,1012.1
2023-02-22T02:06:18.301Z,1012.1
2023-02-22T02:09:18.858Z,1012.1
2023-02-22T02:12:18.462Z,1012.1
2023-02-22T02:15:18.019Z,1012
2023-02-22T02:18:18.221Z,1012
2023-02-22T02:21:18.037Z,1012
2023-02-22T02:24:18.454Z,1012
2023-02-22T02:27:18.581Z,1012
2023-02-22T02:30:18.134Z,1011.9
2023-02-22T02:33:18.275Z,1011.9
2023-02-22T02:36:18.608Z,1011.9
2023-02-22T02:39:18.276Z,1011.9
2023-02-22T02:42:17.934Z,1011.9
2023-02-22T02:45:18.183Z,1011.9
2023-02-22T02:48:18.192Z,1011.9
2023-02-22T02:51:18.747Z,1011.9
2023-02-22T02:54:18.524Z,1011.8
2023-02-22T02:57:25.860Z,1011.8
2023-02-22T03:00:19.140Z,1011.8
2023-02-22T03:03:18.537Z,1011.7
2023-02-22T03:06:17.957Z,1011.7
2023-02-22T03:09:18.262Z,1011.7
2023-02-22T03:12:26.066Z,1011.6
2023-02-22T03:15:18.459Z,1011.6
2023-02-22T03:18:18.515Z,1011.6
2023-02-22T03:21:18.348Z,1011.6
2023-02-22T03:24:18.091Z,1011.5
2023-02-22T03:27:18.301Z,1011.5
2023-02-22T03:30:18.987Z,1011.5
2023-02-22T03:33:18.438Z,1011.5
2023-02-22T03:36:18.671Z,1011.5
2023-02-22T03:39:18.088Z,1011.4
2023-02-22T03:42:18.668Z,1011.4
2023-02-22T03:45:17.822Z,1011.4
2023-02-22T03:48:18.004Z,1011.4
2023-02-22T03:51:18.831Z,1011.4
2023-02-22T03:54:18.272Z,1011.5
2023-02-22T03:57:18.568Z,1011.5
2023-02-22T04:00:17.789Z,1011.5
2023-02-22T04:03:18.062Z,1011.4
2023-02-22T04:06:18.370Z,1011.4
2023-02-22T04:09:18.291Z,1011.4
2023-02-22T04:12:17.854Z,1011.4
2023-02-22T04:15:18.538Z,1011.5
2023-02-22T04:18:17.759Z,1011.5
2023-02-22T04:21:18.511Z,1011.5
2023-02-22T04:24:17.943Z,1011.5
2023-02-22T04:27:18.835Z,1011.5
2023-02-22T04:30:18.516Z,1011.4
2023-02-22T04:33:17.941Z,1011.4
2023-02-22T04:36:18.252Z,1011.4
2023-02-22T04:39:18.531Z,1011.5
2023-02-22T04:42:17.686Z,1011.5
2023-02-22T04:45:18.220Z,1011.5
2023-02-22T04:48:17.960Z,1011.5
2023-02-22T04:51:18.558Z,1011.5
2023-02-22T04:54:18.262Z,1011.4
2023-02-22T04:57:17.925Z,1011.4
2023-02-22T05:02:23.870Z,1011.4
2023-02-22T05:03:19.397Z,1011.4
2023-02-22T05:06:18.606Z,1011.4
2023-02-22T05:09:18.608Z,1011.4
2023-02-22T05:12:18.113Z,1011.4
2023-02-22T05:15:18.540Z,1011.4
2023-02-22T05:18:18.245Z,1011.4
2023-02-22T05:21:18.211Z,1011.3
2023-02-22T05:24:18.414Z,1011.3
2023-02-22T05:27:18.538Z,1011.3
2023-02-22T05:30:17.742Z,1011.3
2023-02-22T05:33:18.228Z,1011.3
2023-02-22T05:36:18.784Z,1011.3
2023-02-22T05:39:18.448Z,1011.3
2023-02-22T05:42:17.778Z,1011.3
2023-02-22T05:45:18.180Z,1011.3
2023-02-22T05:48:18.538Z,1011.3
2023-02-22T05:51:18.272Z,1011.3
2023-02-22T05:54:17.988Z,1011.3
2023-02-22T05:57:18.212Z,1011.3
2023-02-22T06:00:18.983Z,1011.3
2023-02-22T06:03:18.719Z,1011.3
2023-02-22T06:06:21.133Z,1011.2
2023-02-22T06:09:19.989Z,1011.2
2023-02-22T06:12:18.345Z,1011.2
2023-02-22T06:15:18.207Z,1011.3
2023-02-22T06:18:18.845Z,1011.2
2023-02-22T06:21:18.654Z,1011.3
2023-02-22T06:24:18.657Z,1011.3
2023-02-22T06:27:18.252Z,1011.3
2023-02-22T06:30:18.134Z,1011.3
2023-02-22T06:33:18.038Z,1011.3
2023-02-22T06:36:18.556Z,1011.3
2023-02-22T06:39:18.202Z,1011.3
2023-02-22T06:42:18.687Z,1011.3
2023-02-22T06:45:18.514Z,1011.3
2023-02-22T06:48:17.921Z,1011.3
2023-02-22T06:51:19.125Z,1011.2
2023-02-22T06:54:17.973Z,1011.3
2023-02-22T06:57:18.085Z,1011.3
2023-02-22T07:00:18.821Z,1011.3
2023-02-22T07:03:18.754Z,1011.3
2023-02-22T07:06:18.265Z,1011.3
2023-02-22T07:09:18.357Z,1011.3
2023-02-22T07:12:18.622Z,1011.3
2023-02-22T07:15:17.952Z,1011.3
2023-02-22T07:18:18.461Z,1011.3
2023-02-22T07:21:19.375Z,1011.3
2023-02-22T07:24:18.794Z,1011.3
2023-02-22T07:27:18.532Z,1011.3
2023-02-22T07:30:28.631Z,1011.3
2023-02-22T07:33:18.490Z,1011.2
2023-02-22T07:36:17.923Z,1011.2
2023-02-22T07:39:18.569Z,1011.2
2023-02-22T07:42:18.718Z,1011.2
2023-02-22T07:45:18.761Z,1011.3
2023-02-22T07:48:18.106Z,1011.3
2023-02-22T07:51:19.276Z,1011.3
2023-02-22T07:54:18.826Z,1011.2
2023-02-22T07:57:17.992Z,1011.2
2023-02-22T08:00:19.920Z,1011.2
2023-02-22T08:03:18.465Z,1011.2
2023-02-22T08:06:18.768Z,1011.2
2023-02-22T08:09:18.597Z,1011.2
2023-02-22T08:12:17.925Z,1011.2
2023-02-22T08:15:18.783Z,1011.2
2023-02-22T08:18:18.166Z,1011.1
2023-02-22T08:21:19.292Z,1011.1
2023-02-22T08:24:17.899Z,1011.1
2023-02-22T08:27:18.378Z,1011.1
2023-02-22T08:30:19.022Z,1011.1
2023-02-22T08:33:18.677Z,1011.1
2023-02-22T08:36:18.489Z,1011.1
2023-02-22T08:39:18.417Z,1011.1
2023-02-22T08:42:18.808Z,1011.1
2023-02-22T08:45:18.806Z,1011
2023-02-22T08:48:18.210Z,1011
2023-02-22T08:51:19.295Z,1011
2023-02-22T08:54:18.243Z,1011
2023-02-22T08:57:21.974Z,1011
2023-02-22T09:00:18.744Z,1011
2023-02-22T09:03:18.814Z,1011
2023-02-22T09:06:18.284Z,1011
2023-02-22T09:09:18.900Z,1010.9
2023-02-22T09:12:18.394Z,1010.9
2023-02-22T09:15:28.114Z,1010.8
2023-02-22T09:18:17.846Z,1010.8
2023-02-22T09:21:18.872Z,1010.8
2023-02-22T09:24:18.468Z,1010.8
2023-02-22T09:27:18.093Z,1010.8
2023-02-22T09:30:18.980Z,1010.8
2023-02-22T09:33:18.700Z,1010.8
2023-02-22T09:36:26.422Z,1010.8
2023-02-22T09:39:18.267Z,1010.8
2023-02-22T09:42:18.179Z,1010.8
2023-02-22T09:45:18.615Z,1010.8
2023-02-22T09:48:22.727Z,1010.8
2023-02-22T09:51:18.436Z,1010.8
2023-02-22T09:54:18.632Z,1010.8
2023-02-22T09:57:18.227Z,1010.7
2023-02-22T10:00:18.741Z,1010.7
2023-02-22T10:03:21.787Z,1010.7
2023-02-22T10:06:19.194Z,1010.7
2023-02-22T10:09:18.948Z,1010.7
2023-02-22T10:12:18.599Z,1010.7
2023-02-22T10:15:17.830Z,1010.7
2023-02-22T10:18:18.705Z,1010.7
2023-02-22T10:21:18.428Z,1010.7
2023-02-22T10:24:24.776Z,1010.7
2023-02-22T10:27:18.354Z,1010.6
2023-02-22T10:30:25.869Z,1010.6
2023-02-22T10:33:18.252Z,1010.6
2023-02-22T10:36:19.366Z,1010.5
2023-02-22T10:39:19.306Z,1010.5
2023-02-22T10:42:17.842Z,1010.5
2023-02-22T10:45:18.180Z,1010.5
2023-02-22T10:48:18.498Z,1010.4
2023-02-22T10:51:18.106Z,1010.4
2023-02-22T10:54:18.685Z,1010.3
2023-02-22T10:57:17.931Z,1010.3
2023-02-22T11:00:18.537Z,1010.3
2023-02-22T11:03:18.027Z,1010.3
2023-02-22T11:06:18.492Z,1010.2
2023-02-22T11:09:18.145Z,1010.2
2023-02-22T11:12:18.910Z,1010.2
2023-02-22T11:15:18.656Z,1010.2
2023-02-22T11:18:18.118Z,1010.2
2023-02-22T11:21:19.510Z,1010.2
2023-02-22T11:27:18.392Z,1010.1
2023-02-22T11:30:18.772Z,1010.1
2023-02-22T11:33:19.016Z,1010
2023-02-22T11:36:18.453Z,1010
2023-02-22T11:39:18.137Z,1010
2023-02-22T11:42:18.400Z,1009.9
2023-02-22T11:45:18.400Z,1009.8
2023-02-22T11:48:20.658Z,1009.8
2023-02-22T11:51:18.995Z,1009.7
2023-02-22T11:54:18.445Z,1009.7
2023-02-22T11:57:18.063Z,1009.7
2023-02-22T12:00:18.353Z,1009.6
2023-02-22T12:03:19.317Z,1009.6
2023-02-22T12:06:19.474Z,1009.6
2023-02-22T12:09:18.482Z,1009.5
2023-02-22T12:12:18.045Z,1009.5
2023-02-22T12:15:18.607Z,1009.5
2023-02-22T12:18:17.905Z,1009.4
2023-02-22T12:21:18.271Z,1009.4
2023-02-22T12:24:18.847Z,1009.4
2023-02-22T12:27:18.730Z,1009.3
2023-02-22T12:30:18.497Z,1009.3
2023-02-22T12:33:18.306Z,1009.3
2023-02-22T12:36:18.974Z,1009.3
2023-02-22T12:39:18.391Z,1009.2
2023-02-22T12:42:18.837Z,1009.2
2023-02-22T12:45:18.352Z,1009.2
2023-02-22T12:48:18.828Z,1009.1
2023-02-22T12:51:18.693Z,1009.1
2023-02-22T12:54:23.196Z,1009.1
2023-02-22T12:57:18.771Z,1009.1
2023-02-22T13:00:21.500Z,1009.1
2023-02-22T13:04:21.687Z,1009
2023-02-22T13:06:27.598Z,1009
2023-02-22T13:09:27.107Z,1009
2023-02-22T13:12:27.651Z,1009
2023-02-22T13:15:27.475Z,1009
2023-02-22T13:18:28.185Z,1009
2023-02-22T13:21:27.891Z,1009
2023-02-22T13:24:27.635Z,1009
2023-02-22T13:27:27.381Z,1009
2023-02-22T13:30:28.026Z,1009
2023-02-22T13:33:27.651Z,1009
2023-02-22T13:36:27.143Z,1008.9
2023-02-22T13:39:27.612Z,1008.9
2023-02-22T13:42:27.128Z,1008.9
2023-02-22T13:45:27.667Z,1008.9
2023-02-22T13:48:27.288Z,1008.8
2023-02-22T13:51:27.707Z,1008.8
2023-02-22T13:54:30.161Z,1008.8
2023-02-22T13:57:27.917Z,1008.8
2023-02-22T14:00:27.532Z,1008.8
2023-02-22T14:03:27.358Z,1008.8
2023-02-22T14:06:27.948Z,1008.8
2023-02-22T14:09:27.816Z,1008.7
2023-02-22T14:12:27.379Z,1008.7
2023-02-22T14:15:31.266Z,1008.7
2023-02-22T14:18:27.843Z,1008.7
2023-02-22T14:21:27.368Z,1008.6
2023-02-22T14:24:26.938Z,1008.6
2023-02-22T14:27:27.909Z,1008.6
2023-02-22T14:30:41.167Z,1008.6
2023-02-22T14:33:28.199Z,1008.6
2023-02-22T14:36:27.943Z,1008.5
2023-02-22T14:39:27.623Z,1008.5
2023-02-22T14:42:27.545Z,1008.5
2023-02-22T14:45:30.232Z,1008.5
2023-02-22T14:48:27.949Z,1008.5
2023-02-22T14:51:25.738Z,1008.5
2023-02-22T14:54:18.394Z,1008.4
2023-02-22T14:57:19.916Z,1008.4
2023-02-22T15:00:22.048Z,1008.4
2023-02-22T15:03:18.615Z,1008.3
2023-02-22T15:06:24.642Z,1008.3
2023-02-22T15:09:18.583Z,1008.3
2023-02-22T15:12:18.112Z,1008.3
2023-02-22T15:15:18.893Z,1008.3
2023-02-22T15:18:18.580Z,1008.3
2023-02-22T15:21:19.024Z,1008.3
2023-02-22T15:24:19.063Z,1008.2
2023-02-22T15:27:18.696Z,1008.2
2023-02-22T15:30:20.369Z,1008.2
2023-02-22T15:33:18.225Z,1008.2
2023-02-22T15:36:18.838Z,1008.2
2023-02-22T15:39:18.441Z,1008.1
2023-02-22T15:42:18.237Z,1008.1
2023-02-22T15:45:18.795Z,1008.1
2023-02-22T15:48:18.605Z,1008.1
2023-02-22T15:51:19.083Z,1008.1
2023-02-22T15:54:28.297Z,1008
2023-02-22T15:57:18.857Z,1008
2023-02-22T16:00:18.737Z,1008
2023-02-22T16:03:18.250Z,1008
2023-02-22T16:06:17.803Z,1008.1
2023-02-22T16:09:19.279Z,1008.1
2023-02-22T16:12:18.365Z,1008.1
2023-02-22T16:15:34.279Z,1008.1
2023-02-22T16:18:18.743Z,1008.1
2023-02-22T16:21:19.066Z,1008.1
2023-02-22T16:24:19.430Z,1008.1
2023-02-22T16:27:18.526Z,1008.2
2023-02-22T16:30:25.787Z,1008.2
2023-02-22T16:33:19.570Z,1008.2
2023-02-22T16:36:18.881Z,1008.2
2023-02-22T16:39:18.703Z,1008.1
2023-02-22T16:42:18.235Z,1008.1
2023-02-22T16:45:18.712Z,1008.2
2023-02-22T16:48:18.424Z,1008.2
2023-02-22T16:51:18.040Z,1008.2
2023-02-22T16:54:18.576Z,1008.2
2023-02-22T16:57:17.581Z,1008.2
2023-02-22T17:00:18.197Z,1008.2
2023-02-22T17:03:18.987Z,1008.2
2023-02-22T17:06:19.356Z,1008.3
2023-02-22T17:09:26.741Z,1008.3
2023-02-22T17:12:18.224Z,1008.3
2023-02-22T17:15:18.882Z,1008.3
2023-02-22T17:18:18.357Z,1008.3
2023-02-22T17:21:18.075Z,1008.3
2023-02-22T17:24:18.640Z,1008.3
2023-02-22T17:27:18.145Z,1008.3
2023-02-22T17:30:18.844Z,1008.3
2023-02-22T17:33:18.756Z,1008.3
2023-02-22T17:36:19.382Z,1008.3
2023-02-22T17:39:18.273Z,1008.3
2023-02-22T17:42:18.973Z,1008.3
2023-02-22T17:45:18.457Z,1008.4
2023-02-22T17:48:18.290Z,1008.4
2023-02-22T17:51:18.408Z,1008.4
2023-02-22T17:54:18.680Z,1008.5
2023-02-22T17:57:18.254Z,1008.5
2023-02-22T18:00:23.323Z,1008.5
2023-02-22T18:03:18.616Z,1008.5
2023-02-22T18:06:18.325Z,1008.5
2023-02-22T18:09:18.149Z,1008.5
2023-02-22T18:12:18.499Z,1008.5
2023-02-22T18:15:18.303Z,1008.5
2023-02-22T18:18:18.542Z,1008.5
2023-02-22T18:21:18.186Z,1008.5
2023-02-22T18:24:18.585Z,1008.4
2023-02-22T18:27:18.154Z,1008.4
2023-02-22T18:30:18.700Z,1008.4
2023-02-22T18:33:18.236Z,1008.4
2023-02-22T18:36:18.198Z,1008.4
2023-02-22T18:39:18.776Z,1008.4
2023-02-22T18:42:18.339Z,1008.4
2023-02-22T18:45:17.972Z,1008.3
2023-02-22T18:48:18.567Z,1008.3
2023-02-22T18:51:18.167Z,1008.4
2023-02-22T18:54:18.516Z,1008.4
2023-02-22T18:57:17.969Z,1008.4
2023-02-22T19:00:31.176Z,1008.4
2023-02-22T19:03:18.563Z,1008.4
2023-02-22T19:06:18.172Z,1008.3
2023-02-22T19:09:18.953Z,1008.3
2023-02-22T19:12:18.444Z,1008.3
2023-02-22T19:15:18.798Z,1008.3
2023-02-22T19:18:18.385Z,1008.3
2023-02-22T19:21:18.358Z,1008.3
2023-02-22T19:24:17.869Z,1008.3
2023-02-22T19:27:18.488Z,1008.3
2023-02-22T19:30:17.938Z,1008.2
2023-02-22T19:33:18.265Z,1008.2
2023-02-22T19:36:18.944Z,1008.2
2023-02-22T19:39:18.783Z,1008.2
2023-02-22T19:42:18.014Z,1008.1
2023-02-22T19:45:18.501Z,1008.1
2023-02-22T19:48:18.287Z,1008.1
2023-02-22T19:51:18.797Z,1008.1
2023-02-22T19:54:19.602Z,1008.1
2023-02-22T19:57:18.466Z,1008.1
2023-02-22T20:00:19.182Z,1008.1
2023-02-22T20:03:18.581Z,1008.1
2023-02-22T20:06:17.952Z,1008.1
2023-02-22T20:09:18.998Z,1008.1
2023-02-22T20:12:18.849Z,1008.1
2023-02-22T20:15:18.583Z,1008.1
2023-02-22T20:18:18.011Z,1008.1
2023-02-22T20:21:19.070Z,1008.1
2023-02-22T20:24:18.713Z,1008.1
2023-02-22T20:27:18.356Z,1008.1
2023-02-22T20:30:18.785Z,1008.1
2023-02-22T20:33:18.932Z,1008.1
2023-02-22T20:36:18.886Z,1008.1
2023-02-22T20:39:18.456Z,1008.1
2023-02-22T20:42:19.197Z,1008
2023-02-22T20:45:18.676Z,1008
2023-02-22T20:48:17.981Z,1008
2023-02-22T20:51:19.191Z,1008
2023-02-22T20:54:19.083Z,1008
2023-02-22T20:57:18.635Z,1008
2023-02-22T21:00:18.218Z,1008
2023-02-22T21:03:19.186Z,1008
2023-02-22T21:06:18.803Z,1008
2023-02-22T21:09:18.354Z,1007.9
2023-02-22T21:12:18.742Z,1007.9
2023-02-22T21:15:18.510Z,1007.9
2023-02-22T21:18:18.254Z,1007.9
2023-02-22T21:21:18.860Z,1007.9
2023-02-22T21:24:18.036Z,1007.9
2023-02-22T21:27:18.288Z,1007.9
2023-02-22T21:30:17.829Z,1007.9
2023-02-22T21:33:18.690Z,1007.8
2023-02-22T21:36:19.357Z,1007.8
2023-02-22T21:39:18.414Z,1007.8
2023-02-22T21:42:18.098Z,1007.8
2023-02-22T21:45:18.465Z,1007.8
2023-02-22T21:48:18.555Z,1007.8
2023-02-22T21:51:29.434Z,1007.8
2023-02-22T21:54:17.948Z,1007.8
2023-02-22T21:57:18.498Z,1007.8
2023-02-22T22:00:18.390Z,1007.8
2023-02-22T22:03:17.832Z,1007.8
2023-02-22T22:06:18.437Z,1007.8
2023-02-22T22:09:17.943Z,1007.8
2023-02-22T22:12:18.824Z,1007.8
2023-02-22T22:15:17.959Z,1007.8
2023-02-22T22:18:18.616Z,1007.7
2023-02-22T22:21:18.519Z,1007.7
2023-02-22T22:24:18.312Z,1007.8
2023-02-22T22:27:17.904Z,1007.7
2023-02-22T22:30:18.982Z,1007.7
2023-02-22T22:33:18.449Z,1007.7
2023-02-22T22:36:17.640Z,1007.7
2023-02-22T22:39:18.054Z,1007.7
2023-02-22T22:42:18.514Z,1007.7
2023-02-22T22:45:18.008Z,1007.7
2023-02-22T22:48:18.217Z,1007.7
2023-02-22T22:51:18.293Z,1007.7
2023-02-22T22:54:17.617Z,1007.7
2023-02-22T22:57:18.274Z,1007.7
2023-02-22T23:00:19.057Z,1007.6
2023-02-22T23:03:18.573Z,1007.6
2023-02-22T23:06:19.160Z,1007.6
2023-02-22T23:09:18.417Z,1007.6
2023-02-22T23:12:18.065Z,1007.6
2023-02-22T23:15:18.458Z,1007.6
2023-02-22T23:18:18.699Z,1007.6
2023-02-22T23:21:18.337Z,1007.6
2023-02-22T23:24:17.791Z,1007.6
2023-02-22T23:27:18.324Z,1007.6
2023-02-22T23:30:20.232Z,1007.7
2023-02-22T23:33:18.551Z,1007.7
2023-02-22T23:36:17.937Z,1007.7
2023-02-22T23:39:18.100Z,1007.7
2023-02-22T23:42:18.600Z,1007.7
2023-02-22T23:45:18.043Z,1007.7
2023-02-22T23:48:18.836Z,1007.7
2023-02-22T23:51:18.632Z,1007.7
2023-02-22T23:54:17.934Z,1007.7
2023-02-22T23:57:18.507Z,1007.7
